Time;durP1;ratioP1;P1;durP2;ratioP2;P2;SDS_P1;SDS_P2;PMS_P1;PMS_P2;Temp;Humidity;BMP_temperature;BMP_pressure;BME280_temperature;BME280_humidity;BME280_pressure;Samples;Min_cycle;Max_cycle;Signal;HPM_P1;HPM_P2
2021/12/16 00:02:31;;;;;;;18.25;16.67;;;;;;;6.15;78.91;100356.09;4159111;28;20236;-53
2021/12/16 00:05:18;;;;;;;15.40;14.10;;;;;;;6.09;79.32;100356.81;4157149;28;20224;-49
2021/12/16 00:07:52;;;;;;;16.70;15.10;;;;;;;6.17;78.87;100354.03;4152233;28;20240;-48
2021/12/16 00:09:36;;;;;;;16.63;14.98;;;;;;;6.06;79.16;100355.28;4147764;28;20201;-48
2021/12/16 00:32:07;;;;;;;14.40;13.20;;;;;;;6.10;79.07;100363.94;4155062;28;20297;-49
2021/12/16 00:34:08;;;;;;;16.60;15.10;;;;;;;6.01;79.31;100354.94;4159690;28;20240;-50
2021/12/16 00:36:11;;;;;;;15.93;14.50;;;;;;;6.02;79.29;100355.81;4171670;28;20205;-49
2021/12/16 00:38:13;;;;;;;15.40;13.88;;;;;;;6.12;79.30;100364.59;4156581;28;20311;-48
2021/12/16 00:40:14;;;;;;;16.10;14.57;;;;;;;6.07;79.19;100359.69;4174600;28;20243;-50
2021/12/16 00:43:13;;;;;;;15.43;13.93;;;;;;;6.06;79.62;100363.44;4154983;28;20247;-48
2021/12/16 00:47:00;;;;;;;13.13;12.02;;;;;;;6.10;79.32;100355.78;4189242;28;20855;-49
2021/12/16 00:49:21;;;;;;;13.98;12.75;;;;;;;6.06;79.33;100362.56;4168995;28;20208;-50
2021/12/16 00:56:06;;;;;;;13.00;11.85;;;;;;;6.06;79.41;100358.00;4160998;28;20204;-48
2021/12/16 00:58:08;;;;;;;13.35;12.13;;;;;;;6.06;79.44;100357.13;4160567;28;20270;-48
2021/12/16 01:00:13;;;;;;;12.65;11.65;;;;;;;6.07;79.35;100358.81;4173481;28;20290;-49
2021/12/16 01:07:33;;;;;;;13.20;12.10;;;;;;;6.11;79.30;100365.63;4157973;28;21034;-49
2021/12/16 01:35:43;;;;;;;14.57;13.30;;;;;;;5.92;79.41;100375.03;4159758;28;20394;-48
2021/12/16 01:41:24;;;;;;;14.75;13.55;;;;;;;6.08;78.90;100376.84;4157473;28;20209;-48
2021/12/16 01:42:47;;;;;;;14.38;13.07;;;;;;;5.95;79.53;100384.72;4148744;28;20225;-48
2021/12/16 01:56:04;;;;;;;14.93;13.38;;;;;;;5.95;79.61;100384.72;4155494;28;20638;-48
2021/12/16 01:58:13;;;;;;;13.45;11.95;;;;;;;6.04;79.48;100386.38;4154617;28;20278;-48
2021/12/16 02:00:28;;;;;;;13.50;12.20;;;;;;;5.96;79.27;100383.69;4153757;28;20740;-48
2021/12/16 02:02:45;;;;;;;12.98;11.75;;;;;;;5.96;79.53;100386.41;4181914;28;20219;-49
2021/12/16 02:07:32;;;;;;;14.57;13.18;;;;;;;5.99;79.44;100388.75;4142529;28;20237;-48
2021/12/16 02:09:40;;;;;;;17.55;11.57;;;;;;;5.95;79.60;100382.81;4159615;28;20314;-48
2021/12/16 02:37:16;;;;;;;12.32;11.18;;;;;;;5.98;79.01;100373.47;4154424;28;20213;-49
2021/12/16 02:39:23;;;;;;;13.93;12.52;;;;;;;5.97;79.66;100374.50;4170876;28;20227;-48
2021/12/16 02:41:29;;;;;;;12.68;11.52;;;;;;;5.93;79.31;100368.59;4190698;28;20226;-48
2021/12/16 02:50:25;;;;;;;12.80;11.60;;;;;;;5.86;79.63;100366.72;4162349;28;20211;-48
2021/12/16 02:52:27;;;;;;;13.32;12.02;;;;;;;5.87;79.79;100357.53;4169982;28;20259;-50
2021/12/16 02:54:29;;;;;;;13.45;12.05;;;;;;;5.95;79.54;100360.25;4158751;28;20236;-48
2021/12/16 02:56:32;;;;;;;13.85;12.60;;;;;;;5.89;79.70;100350.09;4172760;28;20208;-49
2021/12/16 02:58:37;;;;;;;14.18;12.82;;;;;;;5.83;79.79;100361.66;4186717;28;20199;-49
2021/12/16 03:00:48;;;;;;;13.70;12.50;;;;;;;5.84;80.17;100358.75;4172974;28;20229;-49
2021/12/16 03:02:51;;;;;;;11.95;10.95;;;;;;;5.87;79.83;100362.97;4157468;28;20220;-49
2021/12/16 03:04:54;;;;;;;12.80;11.70;;;;;;;5.97;79.59;100367.19;4156738;28;20971;-49
2021/12/16 03:06:57;;;;;;;13.95;12.75;;;;;;;5.96;79.73;100370.94;4159956;28;20740;-49
2021/12/16 03:09:00;;;;;;;13.43;12.23;;;;;;;5.95;79.72;100365.69;4161533;28;20209;-49
2021/12/16 03:11:15;;;;;;;13.45;12.18;;;;;;;5.94;79.77;100363.97;4190130;28;20226;-48
2021/12/16 03:13:42;;;;;;;14.70;13.43;;;;;;;5.95;79.71;100365.69;4173269;28;20205;-49
2021/12/16 03:18:07;;;;;;;14.23;13.05;;;;;;;6.01;79.79;100367.69;4161446;28;20242;-48
2021/12/16 03:20:22;;;;;;;13.50;12.25;;;;;;;5.97;79.93;100374.50;4157988;28;20212;-48
2021/12/16 03:29:39;;;;;;;15.27;13.85;;;;;;;6.01;79.76;100383.97;4160191;28;20207;-49
2021/12/16 03:34:10;;;;;;;14.65;13.13;;;;;;;5.97;79.53;100379.94;4158889;28;20208;-49
2021/12/16 03:36:27;;;;;;;14.52;13.23;;;;;;;5.98;79.41;100373.47;4174613;28;20196;-49
2021/12/16 03:38:30;;;;;;;14.48;13.20;;;;;;;5.97;79.60;100379.94;4159640;28;20197;-49
2021/12/16 03:40:33;;;;;;;14.55;13.18;;;;;;;6.04;79.23;100380.94;4188151;28;20677;-50
2021/12/16 03:42:43;;;;;;;17.35;15.70;;;;;;;6.00;79.68;100374.16;4189113;28;20232;-49
2021/12/16 03:45:00;;;;;;;16.35;14.65;;;;;;;5.99;79.49;100377.88;4190119;28;20323;-48
2021/12/16 03:47:02;;;;;;;15.27;14.00;;;;;;;6.00;79.44;100385.00;4171163;28;20234;-48
2021/12/16 03:49:17;;;;;;;15.73;13.45;;;;;;;5.97;79.29;100377.22;4158269;28;20634;-50
2021/12/16 03:51:53;;;;;;;13.60;12.50;;;;;;;5.89;79.58;100383.53;4175687;28;20261;-48
2021/12/16 03:54:00;;;;;;;14.18;12.98;;;;;;;5.91;79.93;100383.34;4145685;28;20679;-48
2021/12/16 03:56:03;;;;;;;14.07;12.95;;;;;;;5.97;79.38;100375.34;4166022;28;20211;-48
2021/12/16 03:58:04;;;;;;;13.88;12.68;;;;;;;5.97;79.75;100374.50;4157948;28;20288;-49
2021/12/16 04:00:11;;;;;;;14.25;12.98;;;;;;;5.97;79.22;100380.78;4189384;28;20686;-48
2021/12/16 04:02:25;;;;;;;14.18;12.93;;;;;;;5.97;79.39;100377.22;4189254;28;20192;-48
2021/12/16 04:04:27;;;;;;;14.05;12.73;;;;;;;5.98;79.21;100381.63;4159514;28;20278;-48
2021/12/16 04:06:32;;;;;;;13.65;12.45;;;;;;;5.92;79.35;100383.19;4173334;28;20204;-48
2021/12/16 04:08:33;;;;;;;14.57;13.30;;;;;;;5.91;79.49;100388.78;4155421;28;20231;-49
2021/12/16 04:11:01;;;;;;;17.55;12.90;;;;;;;5.88;79.41;100386.44;4156594;28;20255;-48
2021/12/16 04:13:06;;;;;;;15.27;13.98;;;;;;;5.83;79.51;100388.81;4187940;28;20207;-48
2021/12/16 04:15:10;;;;;;;16.05;14.50;;;;;;;5.83;79.58;100380.66;4174188;28;20236;-48
2021/12/16 04:17:13;;;;;;;13.63;12.52;;;;;;;5.78;80.04;100391.16;4170922;28;20739;-48
2021/12/16 04:19:18;;;;;;;16.23;14.75;;;;;;;5.79;79.98;100391.03;4194722;28;20725;-48
2021/12/16 04:21:21;;;;;;;14.57;12.32;;;;;;;5.86;79.91;100392.03;4160744;28;20204;-50
2021/12/16 04:23:23;;;;;;;16.42;14.82;;;;;;;5.89;79.76;100393.56;4158769;28;20236;-48
2021/12/16 04:25:30;;;;;;;56.38;29.20;;;;;;;5.78;80.18;100391.16;4190423;28;20984;-48
2021/12/16 04:27:32;;;;;;;49.15;29.23;;;;;;;5.70;79.82;100399.34;4162119;28;20235;-48
2021/12/16 04:29:36;;;;;;;32.10;23.65;;;;;;;5.68;80.38;100395.94;4160345;28;20208;-49
2021/12/16 04:31:38;;;;;;;39.35;24.98;;;;;;;5.71;80.29;100403.75;4158270;28;20240;-48
2021/12/16 04:33:40;;;;;;;32.05;23.60;;;;;;;5.75;80.26;100403.22;4191672;28;20653;-48
2021/12/16 04:35:41;;;;;;;31.85;23.13;;;;;;;5.95;79.87;100398.31;4187103;28;20250;-48
2021/12/16 04:37:44;;;;;;;28.40;18.67;;;;;;;5.94;79.49;100402.00;4189253;28;20220;-55
2021/12/16 04:39:46;;;;;;;22.15;19.63;;;;;;;5.81;79.98;100405.28;4160157;28;20228;-48
2021/12/16 04:41:50;;;;;;;19.15;16.92;;;;;;;5.88;79.81;100405.44;4170808;28;20599;-49
2021/12/16 04:43:56;;;;;;;19.23;16.50;;;;;;;5.86;79.85;100404.75;4141129;28;20209;-50
2021/12/16 04:45:57;;;;;;;16.65;15.10;;;;;;;5.85;79.98;100409.38;4159979;28;20205;-49
2021/12/16 04:47:59;;;;;;;21.20;15.27;;;;;;;5.95;79.62;100398.31;4157030;28;20213;-48
2021/12/16 04:50:02;;;;;;;17.60;16.10;;;;;;;5.90;80.01;100398.78;4156484;28;20709;-50
2021/12/16 04:52:10;;;;;;;16.75;15.18;;;;;;;6.03;79.31;100398.25;4160265;28;20209;-49
2021/12/16 04:54:13;;;;;;;15.77;14.45;;;;;;;5.99;79.94;100410.50;4175674;28;20715;-48
2021/12/16 04:56:16;;;;;;;18.05;16.05;;;;;;;6.00;79.54;100406.75;4172331;28;20661;-49
2021/12/16 04:58:17;;;;;;;15.60;14.30;;;;;;;5.89;79.71;100409.88;4160327;28;20542;-48
2021/12/16 05:00:22;;;;;;;17.75;16.20;;;;;;;5.91;80.07;100418.69;4156694;28;20211;-49
2021/12/16 05:02:25;;;;;;;18.95;17.05;;;;;;;5.91;79.52;100413.25;4157786;28;20201;-49
2021/12/16 05:04:27;;;;;;;19.48;17.67;;;;;;;5.85;79.91;100424.81;4168761;28;20246;-49
2021/12/16 05:06:28;;;;;;;16.70;15.32;;;;;;;5.87;79.77;100415.47;4173294;28;20227;-48
2021/12/16 05:08:31;;;;;;;18.55;16.83;;;;;;;5.86;79.71;100426.50;4170725;28;20208;-49
2021/12/16 05:10:33;;;;;;;16.33;14.60;;;;;;;5.96;79.70;100421.72;4169392;28;20208;-49
2021/12/16 05:12:38;;;;;;;17.05;15.57;;;;;;;5.92;79.27;100420.38;4172135;28;20208;-48
2021/12/16 05:14:41;;;;;;;17.45;15.85;;;;;;;5.92;79.53;100420.38;4171685;28;20228;-48
2021/12/16 05:16:43;;;;;;;17.13;15.63;;;;;;;5.79;80.23;100410.06;4158187;28;20205;-49
2021/12/16 05:18:45;;;;;;;17.63;16.00;;;;;;;5.86;79.69;100418.34;4156732;28;20208;-48
2021/12/16 05:20:47;;;;;;;19.13;16.48;;;;;;;5.81;79.94;100423.44;4170320;28;20208;-49
2021/12/16 05:25:21;;;;;;;18.50;16.70;;;;;;;5.91;79.97;100421.38;4155844;28;20264;-49
2021/12/16 05:27:23;;;;;;;16.75;15.02;;;;;;;5.86;79.80;100410.19;4160735;28;20228;-49
2021/12/16 05:29:25;;;;;;;16.33;14.70;;;;;;;5.77;80.08;100422.06;4155094;28;20280;-48
2021/12/16 05:31:27;;;;;;;16.63;15.02;;;;;;;5.77;79.94;100424.78;4156752;28;20244;-48
2021/12/16 05:33:30;;;;;;;17.73;16.10;;;;;;;5.77;79.94;100427.50;4153861;28;20200;-50
2021/12/16 05:35:32;;;;;;;17.25;15.88;;;;;;;5.77;79.90;100427.50;4172552;28;20231;-48
2021/12/16 05:37:34;;;;;;;17.27;15.68;;;;;;;5.78;80.26;100434.63;4189687;28;20713;-49
2021/12/16 05:39:36;;;;;;;19.63;16.65;;;;;;;5.90;80.05;100425.13;4159134;28;20215;-48
2021/12/16 05:41:38;;;;;;;19.60;17.55;;;;;;;5.87;79.59;100433.63;4173060;28;20204;-48
2021/12/16 05:43:40;;;;;;;17.48;15.95;;;;;;;5.83;79.98;100443.16;4157488;28;20260;-48
2021/12/16 05:45:43;;;;;;;15.70;14.20;;;;;;;5.82;80.21;100441.47;4153998;28;20259;-49
2021/12/16 05:47:46;;;;;;;16.15;14.85;;;;;;;6.02;79.21;100448.22;4189300;28;20317;-48
2021/12/16 05:49:47;;;;;;;18.23;16.20;;;;;;;5.87;79.49;100444.47;4160568;28;20209;-49
2021/12/16 05:52:04;;;;;;;17.55;15.65;;;;;;;5.85;79.80;100451.97;4190879;28;20222;-48
2021/12/16 05:54:08;;;;;;;15.90;14.45;;;;;;;5.95;79.71;100449.91;4155240;28;20554;-48
2021/12/16 05:56:18;;;;;;;18.83;16.65;;;;;;;5.88;79.82;100447.03;4155897;28;20246;-48
2021/12/16 05:58:20;;;;;;;14.23;12.88;;;;;;;5.87;79.98;100449.91;4169354;28;20219;-50
2021/12/16 06:00:30;;;;;;;17.80;16.15;;;;;;;5.88;79.68;100448.91;4157348;28;20205;-50
2021/12/16 06:02:31;;;;;;;15.95;14.55;;;;;;;5.92;79.82;100453.81;4160047;28;20204;-49
2021/12/16 06:04:43;;;;;;;18.63;16.70;;;;;;;5.92;79.49;100455.69;4158808;28;20274;-48
2021/12/16 06:06:48;;;;;;;15.15;13.73;;;;;;;5.90;79.71;100460.44;4157805;28;20287;-48
2021/12/16 06:08:54;;;;;;;15.23;14.00;;;;;;;5.89;79.74;100464.19;4157580;28;20223;-48
2021/12/16 06:11:20;;;;;;;15.02;13.73;;;;;;;5.81;79.76;100462.31;4157921;28;20208;-49
2021/12/16 06:13:22;;;;;;;16.98;15.25;;;;;;;5.82;79.73;100464.03;4155583;28;20209;-49
2021/12/16 06:15:59;;;;;;;17.20;15.40;;;;;;;5.87;79.59;100458.94;4174044;28;20230;-50
2021/12/16 06:27:44;;;;;;;15.50;14.10;;;;;;;5.83;79.82;100448.59;4160324;28;20652;-48
2021/12/16 06:29:59;;;;;;;19.10;15.90;;;;;;;5.94;79.37;100457.22;4173622;28;20238;-49
2021/12/16 06:32:25;;;;;;;17.00;15.40;;;;;;;5.78;79.88;100464.50;4159921;28;20602;-48
2021/12/16 06:34:27;;;;;;;20.48;16.08;;;;;;;5.76;79.81;100458.41;4156286;28;20562;-48
2021/12/16 06:36:29;;;;;;;16.67;15.18;;;;;;;5.74;80.01;100471.28;4157295;28;20267;-49
2021/12/16 06:38:30;;;;;;;20.50;17.67;;;;;;;5.77;80.00;100465.53;4160896;28;20652;-49
2021/12/16 06:40:49;;;;;;;17.70;15.98;;;;;;;5.93;79.79;100463.69;4170551;28;20688;-48
2021/12/16 06:42:54;;;;;;;19.05;16.63;;;;;;;5.81;79.91;100466.91;4160650;28;20315;-48
2021/12/16 06:45:07;;;;;;;18.88;17.08;;;;;;;5.86;79.58;100459.94;4158481;28;20235;-49
2021/12/16 06:47:18;;;;;;;19.83;17.92;;;;;;;5.79;79.98;100460.75;4194959;28;20244;-48
2021/12/16 06:49:21;;;;;;;20.67;16.27;;;;;;;5.81;79.82;100461.47;4178227;28;20284;-48
2021/12/16 06:51:35;;;;;;;17.17;15.73;;;;;;;5.99;79.52;100462.13;4176530;28;20238;-48
2021/12/16 06:53:50;;;;;;;21.80;19.90;;;;;;;5.84;79.58;100459.25;4161769;28;20247;-48
2021/12/16 06:56:16;;;;;;;19.55;17.85;;;;;;;5.80;79.76;100465.22;4160614;28;20209;-48
2021/12/16 06:58:40;;;;;;;17.50;15.88;;;;;;;5.81;80.03;100464.19;4159926;28;20205;-49
2021/12/16 07:02:01;;;;;;;17.90;16.38;;;;;;;5.82;80.09;100463.19;4162864;28;20272;-49
2021/12/16 07:04:01;;;;;;;22.00;16.45;;;;;;;5.82;79.86;100479.50;4162591;28;20590;-49
2021/12/16 07:06:25;;;;;;;19.15;17.27;;;;;;;5.85;79.64;100468.25;4161498;28;20227;-48
2021/12/16 07:11:09;;;;;;;19.42;17.55;;;;;;;5.85;79.53;100479.13;4160274;28;20200;-50
2021/12/16 07:13:37;;;;;;;20.02;18.05;;;;;;;5.87;79.60;100474.38;4159685;28;20216;-49
2021/12/16 07:16:01;;;;;;;19.25;17.30;;;;;;;5.76;79.62;100474.72;4156827;28;20228;-49
2021/12/16 07:18:23;;;;;;;22.27;20.10;;;;;;;5.80;79.81;100476.94;4162070;28;20266;-49
2021/12/16 07:20:28;;;;;;;19.95;17.90;;;;;;;5.76;80.13;100485.56;4159513;28;20209;-49
2021/12/16 07:22:30;;;;;;;20.92;19.05;;;;;;;5.79;79.92;100496.09;4173884;28;20673;-49
2021/12/16 07:24:35;;;;;;;22.35;20.33;;;;;;;5.74;79.80;100498.44;4159212;28;20233;-49
2021/12/16 07:26:37;;;;;;;21.70;19.45;;;;;;;5.75;79.99;100490.16;4157942;28;20239;-49
2021/12/16 07:28:39;;;;;;;20.88;18.88;;;;;;;5.82;79.97;100490.34;4157729;28;20367;-49
2021/12/16 07:30:43;;;;;;;24.17;20.50;;;;;;;5.75;79.88;100501.00;4172498;28;20784;-48
2021/12/16 07:32:45;;;;;;;20.75;18.55;;;;;;;5.74;80.15;100503.88;4188885;28;20235;-49
2021/12/16 07:34:47;;;;;;;20.33;18.42;;;;;;;5.77;79.98;100509.81;4155744;28;20228;-49
2021/12/16 07:36:48;;;;;;;21.38;19.20;;;;;;;5.74;79.86;100512.91;4174327;28;20314;-49
2021/12/16 07:38:51;;;;;;;21.38;19.15;;;;;;;5.76;80.10;100510.03;4160934;28;20240;-49
2021/12/16 07:40:57;;;;;;;18.48;16.70;;;;;;;5.76;80.17;100512.75;4142775;28;20924;-48
2021/12/16 07:43:12;;;;;;;20.60;18.65;;;;;;;5.77;79.99;100519.84;4174041;28;20204;-49
2021/12/16 07:45:16;;;;;;;18.48;16.73;;;;;;;5.81;79.97;100521.22;4158142;28;20647;-48
2021/12/16 07:47:18;;;;;;;18.10;16.63;;;;;;;5.81;79.91;100526.66;4141338;28;20213;-49
2021/12/16 07:49:23;;;;;;;21.08;18.10;;;;;;;5.82;79.77;100531.94;4158844;28;20269;-49
2021/12/16 07:51:25;;;;;;;17.08;15.68;;;;;;;5.84;79.99;100531.78;4171162;28;20249;-49
2021/12/16 07:53:27;;;;;;;19.83;17.77;;;;;;;5.82;80.14;100544.69;4187725;28;20236;-48
2021/12/16 07:55:29;;;;;;;17.98;16.20;;;;;;;5.82;79.94;100545.50;4185559;28;20302;-49
2021/12/16 07:57:31;;;;;;;18.20;16.42;;;;;;;5.83;79.72;100546.38;4172641;28;20299;-49
2021/12/16 07:59:35;;;;;;;17.83;15.77;;;;;;;5.84;79.71;100548.06;4157853;28;20205;-49
2021/12/16 08:01:41;;;;;;;17.52;16.02;;;;;;;5.88;79.99;100549.44;4174326;28;20212;-49
2021/12/16 08:03:43;;;;;;;17.52;15.88;;;;;;;5.93;79.91;100547.91;4156157;28;20546;-48
2021/12/16 08:05:51;;;;;;;25.20;18.00;;;;;;;5.88;79.57;100565.75;4155193;28;20282;-48
2021/12/16 08:07:57;;;;;;;19.80;18.00;;;;;;;5.92;79.46;100561.66;4154273;28;20212;-50
2021/12/16 08:10:03;;;;;;;22.08;17.75;;;;;;;5.87;79.83;100555.88;4156401;28;20236;-49
2021/12/16 08:12:06;;;;;;;21.33;17.02;;;;;;;5.86;79.66;100565.03;4177480;28;20200;-49
2021/12/16 08:14:09;;;;;;;24.27;18.33;;;;;;;5.80;79.84;100576.59;4159283;28;20221;-49
2021/12/16 08:16:11;;;;;;;18.85;16.67;;;;;;;5.92;79.81;100567.09;4177420;28;20217;-47
2021/12/16 08:18:26;;;;;;;20.63;18.55;;;;;;;5.88;79.77;100569.28;4162089;28;20204;-48
2021/12/16 08:20:28;;;;;;;19.88;17.92;;;;;;;5.99;79.55;100573.53;4162340;28;20300;-47
2021/12/16 08:22:30;;;;;;;18.45;16.65;;;;;;;5.88;79.84;100560.31;4161916;28;20266;-49
2021/12/16 08:24:33;;;;;;;21.23;19.05;;;;;;;5.90;79.82;100569.13;4160953;28;20672;-47
2021/12/16 08:26:41;;;;;;;22.02;19.10;;;;;;;5.92;79.46;100564.38;4189336;28;20207;-47
2021/12/16 08:28:52;;;;;;;20.35;18.27;;;;;;;5.85;79.84;100566.06;4161674;28;20211;-50
2021/12/16 08:30:57;;;;;;;20.15;18.25;;;;;;;5.86;80.05;100567.75;4160734;28;20323;-48
2021/12/16 08:33:04;;;;;;;25.15;21.17;;;;;;;5.87;80.07;100570.31;4174063;28;20197;-48
2021/12/16 08:35:07;;;;;;;19.90;17.90;;;;;;;5.91;80.25;100576.25;4160734;28;22717;-48
2021/12/16 08:37:17;;;;;;;18.27;16.60;;;;;;;6.19;79.36;100574.88;4161739;28;20208;-48
2021/12/16 08:39:23;;;;;;;22.05;19.17;;;;;;;6.01;79.53;100575.06;4161371;28;20200;-50
2021/12/16 08:41:34;;;;;;;19.67;17.00;;;;;;;6.06;79.47;100579.97;4161552;28;20215;-48
2021/12/16 08:43:46;;;;;;;22.33;19.60;;;;;;;6.09;79.67;100580.47;4160346;28;20271;-48
2021/12/16 08:45:49;;;;;;;19.92;17.80;;;;;;;6.06;79.55;100585.41;4163069;28;20267;-48
2021/12/16 08:48:05;;;;;;;24.00;19.08;;;;;;;6.07;79.46;100587.97;4158515;28;20259;-49
2021/12/16 08:50:29;;;;;;;21.45;19.65;;;;;;;6.10;79.68;100584.91;4158354;28;20656;-48
2021/12/16 08:52:36;;;;;;;24.45;21.65;;;;;;;6.17;79.61;100593.22;4159709;28;20197;-49
2021/12/16 08:54:39;;;;;;;20.25;18.35;;;;;;;6.13;79.57;100592.72;4160075;28;20215;-48
2021/12/16 08:56:41;;;;;;;21.92;19.67;;;;;;;6.18;79.53;100598.50;4161326;28;20201;-48
2021/12/16 08:58:57;;;;;;;20.13;18.17;;;;;;;6.23;79.51;100603.41;4156526;28;20660;-49
2021/12/16 09:01:20;;;;;;;19.95;18.30;;;;;;;6.24;79.68;100594.25;4173971;28;20565;-48
2021/12/16 09:03:49;;;;;;;21.05;19.05;;;;;;;6.25;79.53;100601.38;4158482;28;20205;-49
2021/12/16 09:06:09;;;;;;;25.20;21.45;;;;;;;6.29;79.64;100603.56;4159992;28;20219;-49
2021/12/16 09:08:31;;;;;;;20.98;18.90;;;;;;;6.33;79.50;100604.94;4159439;28;20562;-48
2021/12/16 09:10:35;;;;;;;20.73;19.02;;;;;;;6.38;79.85;100613.44;4157788;28;20196;-48
2021/12/16 09:12:50;;;;;;;20.58;17.92;;;;;;;6.44;79.77;100603.72;4160892;28;20212;-49
2021/12/16 09:14:51;;;;;;;20.35;18.55;;;;;;;6.47;79.44;100611.53;4177737;28;20721;-48
2021/12/16 09:16:56;;;;;;;20.67;18.50;;;;;;;6.51;79.47;100610.16;4160245;28;20217;-48
2021/12/16 09:21:28;;;;;;;19.65;18.00;;;;;;;6.58;79.04;100609.31;4173271;28;20914;-48
2021/12/16 09:23:31;;;;;;;22.13;17.92;;;;;;;6.63;79.28;100614.22;4156321;28;20201;-48
2021/12/16 09:25:40;;;;;;;20.52;18.73;;;;;;;6.66;79.11;100616.59;4162850;28;20259;-48
2021/12/16 09:27:43;;;;;;;22.42;20.52;;;;;;;6.69;78.69;100621.69;4159312;28;20204;-48
2021/12/16 09:29:51;;;;;;;23.17;20.77;;;;;;;6.77;78.74;100622.50;4160091;28;20236;-48
2021/12/16 09:31:52;;;;;;;24.77;22.50;;;;;;;6.85;78.67;100611.63;4162080;28;20196;-48
2021/12/16 09:34:02;;;;;;;21.20;19.23;;;;;;;6.95;77.96;100614.13;4160651;28;20213;-48
2021/12/16 09:36:09;;;;;;;23.40;21.23;;;;;;;6.94;78.28;100615.13;4159419;28;20221;-48
2021/12/16 09:38:12;;;;;;;22.05;20.00;;;;;;;7.02;78.14;100626.03;4158235;28;20227;-48
2021/12/16 09:40:21;;;;;;;23.02;20.92;;;;;;;7.11;77.80;100633.13;4164380;28;20698;-48
2021/12/16 09:43:18;;;;;;;23.65;21.20;;;;;;;7.18;77.65;100628.66;4163756;28;20201;-48
2021/12/16 09:45:24;;;;;;;25.83;19.63;;;;;;;7.18;77.43;100628.66;4160009;28;20311;-48
2021/12/16 09:47:27;;;;;;;26.00;20.15;;;;;;;7.28;77.16;100634.75;4165068;28;20212;-48
2021/12/16 09:49:29;;;;;;;22.02;19.30;;;;;;;7.36;77.22;100629.28;4156579;28;20252;-49
2021/12/16 09:51:47;;;;;;;19.70;18.00;;;;;;;7.41;76.61;100629.59;4159451;28;20212;-48
2021/12/16 09:54:12;;;;;;;18.67;17.08;;;;;;;7.51;75.32;100627.47;4176223;28;20203;-48
2021/12/16 09:56:15;;;;;;;20.45;18.52;;;;;;;7.37;75.86;100631.78;4190993;28;20302;-48
2021/12/16 09:58:17;;;;;;;17.83;16.42;;;;;;;7.53;75.39;100636.31;4159901;28;20263;-48
2021/12/16 10:00:22;;;;;;;23.67;20.88;;;;;;;7.40;75.49;100627.88;4159480;28;20287;-48
2021/12/16 10:02:38;;;;;;;28.38;19.77;;;;;;;7.27;75.41;100622.13;4158092;28;20200;-48
2021/12/16 10:04:41;;;;;;;20.25;18.65;;;;;;;7.46;75.77;100629.88;4173502;28;20254;-48
2021/12/16 10:06:59;;;;;;;20.08;18.33;;;;;;;7.81;76.61;100637.53;4160796;28;20208;-48
2021/12/16 10:09:04;;;;;;;20.35;18.45;;;;;;;8.10;75.70;100640.38;4158389;28;20210;-49
2021/12/16 10:11:16;;;;;;;19.52;17.92;;;;;;;8.26;75.32;100642.97;4172898;28;20868;-48
2021/12/16 10:13:31;;;;;;;18.70;17.20;;;;;;;8.33;74.50;100635.75;4157868;28;20258;-48
2021/12/16 10:18:12;;;;;;;20.27;18.58;;;;;;;8.30;74.63;100645.16;4155473;28;20269;-49
2021/12/16 10:20:32;;;;;;;19.63;17.83;;;;;;;8.34;74.00;100643.75;4159943;28;20590;-48
2021/12/16 10:23:27;;;;;;;21.17;18.95;;;;;;;8.30;74.13;100655.22;4173147;28;20205;-49
2021/12/16 10:25:33;;;;;;;20.08;17.85;;;;;;;8.39;74.70;100645.94;4148021;28;20232;-48
2021/12/16 10:27:56;;;;;;;19.50;17.80;;;;;;;8.37;74.18;100628.91;4187523;28;20208;-48
2021/12/16 10:30:07;;;;;;;18.30;16.90;;;;;;;8.37;74.11;100639.81;4160561;28;20204;-49
2021/12/16 10:32:31;;;;;;;17.75;16.25;;;;;;;8.48;73.25;100642.94;4157557;28;20291;-48
2021/12/16 10:34:33;;;;;;;18.17;16.70;;;;;;;8.56;73.92;100644.75;4158421;28;20229;-48
2021/12/16 10:36:54;;;;;;;19.45;17.05;;;;;;;8.90;73.19;100642.38;4156775;28;20731;-48
2021/12/16 10:39:22;;;;;;;17.73;16.38;;;;;;;8.95;72.97;100650.84;4158385;28;20239;-49
2021/12/16 10:41:38;;;;;;;17.25;15.55;;;;;;;8.96;72.79;100649.81;4154009;28;20201;-48
2021/12/16 10:43:45;;;;;;;16.60;15.20;;;;;;;8.97;72.96;100648.78;4157255;28;20208;-48
2021/12/16 10:45:50;;;;;;;18.15;16.75;;;;;;;8.97;72.52;100654.22;4189544;28;20232;-48
2021/12/16 10:48:44;;;;;;;18.98;17.23;;;;;;;9.05;72.66;100644.06;4152791;28;20211;-47
2021/12/16 10:51:16;;;;;;;18.67;17.02;;;;;;;9.02;72.45;100646.34;4136486;28;22322;-48
2021/12/16 10:53:47;;;;;;;19.15;17.58;;;;;;;9.11;71.62;100640.59;4157817;28;20338;-49
2021/12/16 10:56:00;;;;;;;20.40;17.95;;;;;;;9.13;71.97;100648.56;4151874;28;20699;-48
2021/12/16 10:58:02;;;;;;;19.75;17.88;;;;;;;9.25;71.31;100642.47;4171769;28;20212;-48
2021/12/16 11:00:10;;;;;;;18.65;16.80;;;;;;;9.18;71.76;100640.66;4159702;28;20217;-49
2021/12/16 11:02:25;;;;;;;18.77;17.30;;;;;;;9.27;71.52;100643.09;4159115;28;20571;-48
2021/12/16 11:04:32;;;;;;;20.27;17.85;;;;;;;9.46;71.60;100639.78;4152198;28;20763;-48
2021/12/16 11:06:56;;;;;;;20.20;18.30;;;;;;;9.30;70.94;100633.69;4173853;28;20250;-47
2021/12/16 11:09:22;;;;;;;21.95;18.85;;;;;;;9.35;71.78;100625.78;4156455;28;20215;-47
2021/12/16 11:11:29;;;;;;;22.65;18.10;;;;;;;9.50;71.43;100627.44;4179618;28;20648;-47
2021/12/16 11:13:31;;;;;;;19.70;17.98;;;;;;;9.56;70.49;100628.56;4154706;28;20611;-47
2021/12/16 11:15:35;;;;;;;18.15;16.48;;;;;;;9.98;68.70;100634.06;4154237;28;20706;-48
2021/12/16 11:17:42;;;;;;;18.35;16.63;;;;;;;10.27;66.67;100626.63;4155836;28;20209;-48
2021/12/16 11:20:06;;;;;;;19.02;17.08;;;;;;;10.19;68.33;100621.28;4171498;28;20239;-48
2021/12/16 11:22:08;;;;;;;24.88;19.02;;;;;;;10.19;68.10;100623.16;4187605;28;20791;-47
2021/12/16 11:24:23;;;;;;;17.95;16.25;;;;;;;10.16;68.22;100627.13;4170798;28;20204;-48
2021/12/16 11:26:30;;;;;;;20.15;17.92;;;;;;;10.13;68.26;100621.22;4173919;28;20243;-47
2021/12/16 11:28:37;;;;;;;17.88;16.48;;;;;;;9.99;68.87;100620.22;4143905;28;20244;-47
2021/12/16 11:30:54;;;;;;;17.73;16.25;;;;;;;10.11;68.27;100617.84;4186612;28;20904;-48
2021/12/16 11:33:06;;;;;;;16.65;15.25;;;;;;;10.44;67.45;100610.75;4188532;28;20203;-49
2021/12/16 11:35:30;;;;;;;16.15;14.65;;;;;;;10.62;65.73;100611.13;4190056;28;20227;-48
2021/12/16 11:37:31;;;;;;;15.00;13.82;;;;;;;10.45;65.51;100610.56;4189153;28;20203;-49
2021/12/16 11:39:37;;;;;;;17.50;15.90;;;;;;;11.23;67.43;100611.94;4155224;28;20216;-47
2021/12/16 11:41:40;;;;;;;14.15;12.82;;;;;;;11.90;63.54;100617.53;4158850;28;20316;-48
2021/12/16 11:44:09;;;;;;;13.57;12.40;;;;;;;11.97;62.39;100616.47;4182404;28;20604;-48
2021/12/16 11:46:24;;;;;;;12.02;11.02;;;;;;;11.86;61.99;100611.59;4155159;28;20324;-47
2021/12/16 11:48:45;;;;;;;16.13;14.85;;;;;;;11.69;63.42;100614.91;4168557;28;20196;-47
2021/12/16 11:50:47;;;;;;;16.40;15.10;;;;;;;11.84;63.66;100619.16;4156230;28;20682;-47
2021/12/16 11:52:51;;;;;;;16.65;15.38;;;;;;;11.65;63.68;100617.22;4156359;28;20212;-48
2021/12/16 11:54:56;;;;;;;15.48;14.07;;;;;;;11.79;63.71;100613.47;4169285;28;20235;-48
2021/12/16 11:57:00;;;;;;;13.25;12.05;;;;;;;11.72;62.41;100615.34;4174852;28;20636;-47
2021/12/16 11:59:01;;;;;;;13.60;12.50;;;;;;;11.25;63.51;100615.31;4160744;28;20221;-48
2021/12/16 12:01:15;;;;;;;11.88;10.88;;;;;;;11.28;63.47;100603.97;4182189;28;20216;-49
2021/12/16 12:03:17;;;;;;;9.52;8.82;;;;;;;10.82;63.32;100607.47;4160215;28;20201;-47
2021/12/16 12:05:32;;;;;;;9.57;8.65;;;;;;;10.60;63.85;100607.72;4159099;28;20236;-48
2021/12/16 12:07:43;;;;;;;10.65;9.68;;;;;;;10.68;64.53;100611.16;4169344;28;20291;-47
2021/12/16 12:09:48;;;;;;;9.57;8.80;;;;;;;10.39;63.74;100605.03;4160784;28;20308;-47
2021/12/16 12:11:50;;;;;;;9.27;8.38;;;;;;;10.36;63.98;100610.91;4158888;28;20209;-48
2021/12/16 12:14:00;;;;;;;10.50;9.50;;;;;;;10.41;65.39;100602.97;4173072;28;20200;-48